createdAt,value
2022-12-09T00:01:35.173Z,99176.56
2022-12-09T00:04:07.334Z,99174.44
2022-12-09T00:06:38.827Z,99170.50
2022-12-09T00:09:08.188Z,99167.81
2022-12-09T00:14:26.528Z,99171.75
2022-12-09T00:19:54.418Z,99162.84
2022-12-09T00:22:32.734Z,99156.22
2022-12-09T00:25:05.661Z,99164.97
2022-12-09T00:27:34.549Z,99162.66
2022-12-09T00:30:04.308Z,99158.88
2022-12-09T00:35:23.435Z,99154.41
2022-12-09T00:40:49.956Z,99147.94
2022-12-09T00:48:52.702Z,99154.03
2022-12-09T00:51:21.996Z,99148.50
2022-12-09T00:54:02.794Z,99147.59
2022-12-09T00:56:32.343Z,99148.50
2022-12-09T00:59:05.915Z,99140.78
2022-12-09T01:01:37.991Z,99143.81
2022-12-09T01:07:06.630Z,99139.31
2022-12-09T01:12:35.416Z,99142.44
2022-12-09T01:18:15.918Z,99142.81
2022-12-09T01:32:18.638Z,99147.69
2022-12-09T01:34:47.708Z,99144.94
2022-12-09T01:37:17.601Z,99154.41
2022-12-09T01:39:55.101Z,99151.91
2022-12-09T01:42:26.256Z,99149.81
2022-12-09T01:48:22.327Z,99151.16
2022-12-09T01:50:54.428Z,99140.22
2022-12-09T01:53:38.482Z,99137.75
2022-12-09T01:56:17.005Z,99131.22
2022-12-09T01:58:46.190Z,99132.88
2022-12-09T02:01:15.039Z,99124.78
2022-12-09T02:03:42.998Z,99134.09
2022-12-09T02:06:12.756Z,99124.63
2022-12-09T02:08:41.299Z,99125.06
2022-12-09T02:11:15.478Z,99124.03
2022-12-09T02:13:51.311Z,99121.53
2022-12-09T02:16:23.893Z,99125.75
2022-12-09T02:18:56.608Z,99122.53
2022-12-09T02:21:28.070Z,99107.28
2022-12-09T02:24:02.535Z,99106.66
2022-12-09T02:26:36.853Z,99103.19
2022-12-09T02:29:16.122Z,99110.53
2022-12-09T02:31:50.502Z,99109.84
2022-12-09T02:34:21.063Z,99110.88
2022-12-09T02:37:01.128Z,99117.47
2022-12-09T02:39:34.164Z,99109.94
2022-12-09T02:42:04.630Z,99104.69
2022-12-09T02:44:33.475Z,99101.00
2022-12-09T02:47:02.350Z,99105.41
2022-12-09T02:49:34.997Z,99103.72
2022-12-09T02:52:04.272Z,99091.19
2022-12-09T02:54:38.556Z,99089.22
2022-12-09T02:57:13.005Z,99079.69
2022-12-09T02:59:40.969Z,99075.84
2022-12-09T03:02:16.051Z,99074.56
2022-12-09T03:04:47.470Z,99067.16
2022-12-09T03:07:22.171Z,99064.13
2022-12-09T03:09:53.665Z,99068.81
2022-12-09T03:12:21.995Z,99067.59
2022-12-09T03:14:53.181Z,99066.03
2022-12-09T03:17:23.577Z,99065.34
2022-12-09T03:19:54.851Z,99064.84
2022-12-09T03:22:25.437Z,99059.09
2022-12-09T03:24:55.220Z,99053.88
2022-12-09T03:27:26.585Z,99054.81
2022-12-09T03:29:56.126Z,99060.47
2022-12-09T03:32:26.173Z,99061.63
2022-12-09T03:34:59.239Z,99049.47
2022-12-09T03:37:27.816Z,99053.31
2022-12-09T03:39:56.637Z,99044.72
2022-12-09T03:42:27.853Z,99050.75
2022-12-09T03:44:57.913Z,99046.72
2022-12-09T03:47:27.058Z,99044.50
2022-12-09T03:49:56.520Z,99048.97
2022-12-09T03:52:28.858Z,99040.50
2022-12-09T03:54:59.683Z,99040.00
2022-12-09T03:57:28.712Z,99049.75
2022-12-09T04:00:01.666Z,99045.59
2022-12-09T04:02:30.374Z,99041.19
2022-12-09T04:04:59.981Z,99042.47
2022-12-09T04:07:28.126Z,99037.84
2022-12-09T04:09:56.561Z,99035.91
2022-12-09T04:12:24.262Z,99034.41
2022-12-09T04:14:52.488Z,99035.09
2022-12-09T04:17:20.501Z,99039.16
2022-12-09T04:19:48.617Z,99038.44
2022-12-09T04:22:18.167Z,99038.88
2022-12-09T04:24:46.572Z,99033.59
2022-12-09T04:27:14.601Z,99040.06
2022-12-09T04:29:44.109Z,99029.91
2022-12-09T04:32:12.022Z,99032.59
2022-12-09T04:34:40.151Z,99030.25
2022-12-09T04:37:09.388Z,99031.34
2022-12-09T04:39:41.893Z,99037.66
2022-12-09T04:42:10.368Z,99032.13
2022-12-09T04:59:16.814Z,99034.63
2022-12-09T05:01:45.409Z,99024.53
2022-12-09T05:04:14.176Z,99027.66
2022-12-09T05:06:47.140Z,99022.47
2022-12-09T05:14:52.374Z,99023.69
2022-12-09T05:20:14.652Z,99019.44
2022-12-09T05:22:44.183Z,99013.59
2022-12-09T05:25:13.454Z,99015.22
2022-12-09T05:30:42.280Z,99006.09
2022-12-09T05:33:19.040Z,99001.34
2022-12-09T05:38:37.722Z,98997.59
2022-12-09T05:53:13.457Z,98971.81
2022-12-09T05:55:50.749Z,98975.38
2022-12-09T05:58:19.969Z,98967.38
2022-12-09T06:01:03.630Z,98965.78
2022-12-09T06:03:36.952Z,98970.66
2022-12-09T06:06:09.694Z,98977.47
2022-12-09T06:08:43.683Z,98974.56
2022-12-09T06:11:14.610Z,98976.22
2022-12-09T06:13:44.875Z,98975.09
2022-12-09T06:16:16.103Z,98981.72
2022-12-09T06:18:45.269Z,98975.56
2022-12-09T06:21:14.678Z,98983.84
2022-12-09T06:23:43.689Z,98979.03
2022-12-09T06:26:19.029Z,98980.38
2022-12-09T06:28:47.585Z,98978.75
2022-12-09T06:31:19.003Z,98978.16
2022-12-09T06:33:55.837Z,98972.50
2022-12-09T06:36:26.196Z,98983.09
2022-12-09T06:38:57.669Z,98980.91
2022-12-09T06:41:27.606Z,98979.91
2022-12-09T06:43:59.527Z,98977.09
2022-12-09T06:46:37.855Z,98979.69
2022-12-09T06:49:08.832Z,98981.53
2022-12-09T06:51:37.500Z,98972.41
2022-12-09T06:54:10.392Z,98971.66
2022-12-09T06:56:38.667Z,98980.44
2022-12-09T06:59:10.069Z,98978.31
2022-12-09T07:01:41.877Z,98972.88
2022-12-09T07:04:15.059Z,98971.88
2022-12-09T07:06:47.911Z,98969.63
2022-12-09T07:09:17.873Z,98971.41
2022-12-09T07:11:47.464Z,98965.75
2022-12-09T07:14:16.874Z,98960.38
2022-12-09T07:16:46.933Z,98964.44
2022-12-09T07:19:19.342Z,98965.56
2022-12-09T07:21:49.453Z,98962.47
2022-12-09T07:24:18.536Z,98963.53
2022-12-09T07:26:48.433Z,98966.97
2022-12-09T07:29:19.403Z,98963.91
2022-12-09T07:31:49.829Z,98963.28
2022-12-09T07:34:19.601Z,98960.78
2022-12-09T07:36:48.839Z,98962.38
2022-12-09T07:39:22.991Z,98962.25
2022-12-09T07:41:57.026Z,98967.56
2022-12-09T07:44:38.379Z,98954.50
2022-12-09T07:47:13.280Z,98959.84
2022-12-09T07:49:43.735Z,98953.59
2022-12-09T07:55:29.444Z,98963.66
2022-12-09T07:58:00.921Z,98949.28
2022-12-09T08:00:35.362Z,98959.63
2022-12-09T08:03:05.816Z,98948.84
2022-12-09T08:05:35.640Z,98956.94
2022-12-09T08:08:04.349Z,98961.03
2022-12-09T08:10:35.579Z,98960.81
2022-12-09T08:13:05.480Z,98961.03
2022-12-09T08:15:37.093Z,98964.50
2022-12-09T08:18:08.568Z,98966.59
2022-12-09T08:20:38.711Z,98973.69
2022-12-09T08:23:07.824Z,98968.16
2022-12-09T08:25:37.456Z,98967.47
2022-12-09T08:28:07.168Z,98963.75
2022-12-09T08:30:40.464Z,98964.38
2022-12-09T08:33:10.383Z,98974.72
2022-12-09T08:35:39.233Z,98967.88
2022-12-09T08:38:11.435Z,98969.13
2022-12-09T08:40:41.528Z,98966.31
2022-12-09T08:43:10.831Z,98963.31
2022-12-09T08:45:39.438Z,98961.38
2022-12-09T08:48:10.352Z,98965.88
2022-12-09T08:50:44.099Z,98952.81
2022-12-09T08:53:13.972Z,98961.94
2022-12-09T08:55:43.001Z,98964.25
2022-12-09T08:58:11.357Z,98960.28
2022-12-09T09:00:39.767Z,98957.22
2022-12-09T09:03:09.348Z,98955.47
2022-12-09T09:05:41.591Z,98953.94
2022-12-09T09:08:12.060Z,98951.28
2022-12-09T09:10:41.618Z,98951.59
2022-12-09T09:13:10.317Z,98951.41
2022-12-09T09:15:41.243Z,98949.97
2022-12-09T09:18:09.942Z,98953.22
2022-12-09T09:20:38.355Z,98953.91
2022-12-09T09:23:12.543Z,98956.63
2022-12-09T09:25:42.731Z,98957.25
2022-12-09T09:28:11.784Z,98951.22
2022-12-09T09:30:47.431Z,98956.22
2022-12-09T09:33:17.103Z,98954.34
2022-12-09T09:35:47.439Z,98960.41
2022-12-09T09:38:24.368Z,98959.00
2022-12-09T09:43:37.667Z,98958.94
2022-12-09T09:46:07.024Z,98957.84
2022-12-09T09:48:40.650Z,98945.75
2022-12-09T09:51:15.155Z,98948.56
2022-12-09T09:53:47.419Z,98946.84
2022-12-09T09:56:21.876Z,98936.72
2022-12-09T09:58:53.320Z,98937.09
2022-12-09T10:01:29.147Z,98940.25
2022-12-09T10:04:01.720Z,98934.09
2022-12-09T10:06:35.298Z,98934.19
2022-12-09T10:09:20.742Z,98934.47
2022-12-09T10:11:57.432Z,98930.25
2022-12-09T10:14:36.320Z,98920.38
2022-12-09T10:17:10.674Z,98920.31
2022-12-09T10:19:41.828Z,98926.25
2022-12-09T10:22:16.347Z,98931.78
2022-12-09T10:27:39.754Z,98923.78
2022-12-09T10:30:14.113Z,98932.03
2022-12-09T10:32:46.708Z,98928.41
2022-12-09T10:35:23.798Z,98932.53
2022-12-09T10:37:55.762Z,98932.13
2022-12-09T10:40:41.546Z,98929.47
2022-12-09T10:43:40.226Z,98941.53
2022-12-09T10:46:19.925Z,98942.41
2022-12-09T10:48:57.359Z,98944.09
2022-12-09T10:54:39.390Z,98938.63
2022-12-09T10:57:28.273Z,98937.44
2022-12-09T11:02:52.278Z,98923.22
2022-12-09T11:05:26.446Z,98914.03
2022-12-09T11:07:57.069Z,98904.94
2022-12-09T11:10:27.834Z,98908.50
2022-12-09T11:13:04.774Z,98915.00
2022-12-09T11:15:40.687Z,98916.44
2022-12-09T11:18:20.201Z,98902.56
2022-12-09T11:20:56.125Z,98906.25
2022-12-09T11:23:27.998Z,98907.78
2022-12-09T11:25:58.607Z,98901.72
2022-12-09T11:28:39.388Z,98902.78
2022-12-09T11:31:40.149Z,98899.84
2022-12-09T11:34:18.132Z,98891.13
2022-12-09T11:36:49.227Z,98895.19
2022-12-09T11:39:25.937Z,98896.53
2022-12-09T11:42:16.946Z,98883.00
2022-12-09T11:44:52.513Z,98875.66
2022-12-09T11:47:33.629Z,98874.59
2022-12-09T11:50:22.759Z,98878.91
2022-12-09T11:53:07.510Z,98873.69
2022-12-09T11:55:44.537Z,98875.69
2022-12-09T11:58:43.155Z,98876.53
2022-12-09T12:10:06.600Z,98864.75
2022-12-09T12:12:42.687Z,98869.03
2022-12-09T12:15:13.633Z,98877.47
2022-12-09T12:17:51.976Z,98869.63
2022-12-09T12:20:20.259Z,98871.22
2022-12-09T12:26:21.412Z,98869.31
2022-12-09T12:29:07.143Z,98858.78
2022-12-09T12:31:50.727Z,98866.41
2022-12-09T12:37:41.009Z,98870.47
2022-12-09T12:40:16.190Z,98867.63
2022-12-09T12:43:05.484Z,98874.88
2022-12-09T12:46:00.312Z,98860.59
2022-12-09T12:48:31.759Z,98864.63
2022-12-09T12:51:08.348Z,98860.75
2022-12-09T12:53:41.607Z,98864.78
2022-12-09T12:56:16.814Z,98864.34
2022-12-09T12:58:54.329Z,98853.88
2022-12-09T13:01:33.098Z,98852.59
2022-12-09T13:04:15.256Z,98859.69
2022-12-09T13:07:03.939Z,98855.06
2022-12-09T13:09:36.826Z,98857.47
2022-12-09T13:12:09.099Z,98849.69
2022-12-09T13:14:51.783Z,98847.88
2022-12-09T13:17:21.668Z,98846.84
2022-12-09T13:19:52.790Z,98849.84
2022-12-09T13:22:34.075Z,98855.47
2022-12-09T13:25:13.097Z,98849.78
2022-12-09T13:27:46.525Z,98846.22
2022-12-09T13:30:24.520Z,98845.13
2022-12-09T13:33:10.216Z,98840.16
2022-12-09T13:35:43.590Z,98835.97
2022-12-09T13:38:32.476Z,98836.66
2022-12-09T13:41:01.745Z,98835.53
2022-12-09T13:43:31.808Z,98837.13
2022-12-09T13:46:00.995Z,98828.56
2022-12-09T13:48:48.478Z,98841.41
2022-12-09T13:51:37.095Z,98834.47
2022-12-09T13:54:09.544Z,98835.31
2022-12-09T13:57:07.654Z,98831.34
2022-12-09T13:59:48.672Z,98833.63
2022-12-09T14:02:27.686Z,98834.66
2022-12-09T14:05:07.264Z,98823.19
2022-12-09T14:07:38.772Z,98820.47
2022-12-09T14:10:08.596Z,98825.66
2022-12-09T14:12:55.688Z,98831.75
2022-12-09T14:15:39.218Z,98836.03
2022-12-09T14:18:27.054Z,98828.34
2022-12-09T14:21:14.946Z,98835.78
2022-12-09T14:24:04.779Z,98847.56
2022-12-09T14:26:40.347Z,98843.16
2022-12-09T14:29:10.444Z,98843.31
2022-12-09T14:31:56.478Z,98844.38
2022-12-09T14:34:52.876Z,98838.53
2022-12-09T14:37:36.190Z,98852.34
2022-12-09T14:40:23.239Z,98844.72
2022-12-09T14:43:00.792Z,98847.22
2022-12-09T14:45:44.863Z,98845.28
2022-12-09T14:48:31.339Z,98847.97
2022-12-09T14:51:10.791Z,98853.59
2022-12-09T14:56:23.647Z,98852.75
2022-12-09T14:58:54.455Z,98864.56
2022-12-09T15:04:37.645Z,98848.75
2022-12-09T15:07:28.330Z,98854.25
2022-12-09T15:10:01.837Z,98859.94
2022-12-09T15:12:39.596Z,98867.75
2022-12-09T15:15:16.900Z,98863.75
2022-12-09T15:17:50.474Z,98862.75
2022-12-09T15:20:30.431Z,98861.19
2022-12-09T15:23:00.133Z,98865.28
2022-12-09T15:25:34.803Z,98863.00
2022-12-09T15:28:04.987Z,98867.41
2022-12-09T15:30:35.889Z,98868.38
2022-12-09T15:33:05.327Z,98874.34
2022-12-09T15:35:36.653Z,98879.78
2022-12-09T15:38:09.446Z,98881.34
2022-12-09T15:40:59.726Z,98881.09
2022-12-09T15:43:29.318Z,98873.91
2022-12-09T15:46:08.116Z,98870.69
2022-12-09T15:48:38.021Z,98872.34
2022-12-09T15:51:14.704Z,98879.88
2022-12-09T15:53:44.459Z,98886.91
2022-12-09T15:56:14.407Z,98884.00
2022-12-09T15:58:46.409Z,98881.09
2022-12-09T16:07:36.603Z,98887.28
2022-12-09T16:10:09.004Z,98878.41
2022-12-09T16:12:46.143Z,98889.31
2022-12-09T16:15:37.462Z,98891.69
2022-12-09T16:18:12.439Z,98893.47
2022-12-09T16:20:47.058Z,98892.41
2022-12-09T16:23:27.427Z,98900.03
2022-12-09T16:26:06.717Z,98900.97
2022-12-09T16:28:36.692Z,98904.00
2022-12-09T16:31:33.175Z,98902.66
2022-12-09T16:34:03.437Z,98904.94
2022-12-09T16:36:32.214Z,98907.00
2022-12-09T16:39:19.829Z,98908.50
2022-12-09T16:42:03.395Z,98909.56
2022-12-09T16:44:33.383Z,98911.31
2022-12-09T16:47:13.734Z,98905.88
2022-12-09T16:49:45.797Z,98911.22
2022-12-09T16:52:18.545Z,98913.09
2022-12-09T16:55:02.265Z,98902.13
2022-12-09T16:57:52.332Z,98902.03
2022-12-09T17:00:25.080Z,98902.50
2022-12-09T17:02:59.947Z,98912.50
2022-12-09T17:05:29.045Z,98914.00
2022-12-09T17:08:04.924Z,98916.63
2022-12-09T17:13:23.912Z,98911.91
2022-12-09T17:15:59.889Z,98909.78
2022-12-09T17:18:29.696Z,98906.84
2022-12-09T17:21:06.892Z,98895.41
2022-12-09T17:26:30.184Z,98915.28
2022-12-09T17:31:52.171Z,98910.88
2022-12-09T17:34:27.063Z,98910.53
2022-12-09T17:36:57.166Z,98909.94
2022-12-09T17:39:33.872Z,98914.44
2022-12-09T17:53:49.759Z,98932.66
2022-12-09T18:02:41.819Z,98939.06
2022-12-09T18:20:38.449Z,98950.28
2022-12-09T18:34:47.982Z,98955.41
2022-12-09T18:37:38.396Z,98952.28
2022-12-09T18:40:09.952Z,98955.13
2022-12-09T18:55:12.652Z,98959.56
2022-12-09T19:00:35.495Z,98960.59
2022-12-09T19:03:14.646Z,98956.25
2022-12-09T19:05:54.601Z,98958.47
2022-12-09T19:08:25.896Z,98959.38
2022-12-09T19:13:58.028Z,98967.03
2022-12-09T19:17:17.142Z,98968.00
2022-12-09T19:38:41.045Z,98981.34
2022-12-09T19:41:08.930Z,98981.06
2022-12-09T19:43:36.764Z,98980.00
2022-12-09T19:48:53.030Z,98982.63
2022-12-09T19:51:31.727Z,98976.59
2022-12-09T19:54:28.418Z,98980.19
2022-12-09T20:41:28.474Z,99013.72
2022-12-09T20:54:21.353Z,99015.09
2022-12-09T21:18:00.559Z,99035.53
2022-12-09T21:24:25.547Z,99041.47
2022-12-09T21:33:16.209Z,99043.41
2022-12-09T21:39:23.091Z,99026.16
2022-12-09T21:42:08.045Z,99029.59
2022-12-09T21:44:49.938Z,99029.06
2022-12-09T21:47:17.885Z,99037.31
2022-12-09T21:50:14.385Z,99028.22
2022-12-09T21:52:58.464Z,99028.13
2022-12-09T21:58:31.432Z,99031.47
2022-12-09T22:13:56.715Z,99033.47
2022-12-09T22:32:50.791Z,99034.63
2022-12-09T22:35:29.166Z,99045.88
2022-12-09T22:38:14.173Z,99048.16
2022-12-09T22:43:57.158Z,99054.47
2022-12-09T22:46:28.464Z,99044.09
2022-12-09T22:49:14.281Z,99042.75
2022-12-09T23:14:32.275Z,99053.03
2022-12-09T23:17:09.118Z,99046.97
2022-12-09T23:19:39.147Z,99053.78
